Terminal Aerodrome Forecast
Issued by NWS Charleston, WV

Current Version | Previous Version | Text Only | Print | Product List | Glossary Off
Versions: 1 2 3 4 5 6 7 8 9 10 11 12 13 14 15 16 17 18 19 20 21 22 23 24 25

361
FTUS41 KRLX 012320
TAFBKW
TAF
KBKW 012320Z 0200/0224 23005KT P6SM VCTS OVC040CB
      TEMPO 0200/0201 29025G35KT 1SM +TSRA BR BKN008CB OVC015
     FM020300 21005KT 6SM TSRA BR BKN060CB
     FM020600 20006KT P6SM BKN070
     FM020900 25005KT 6SM BR BKN025
     FM021200 23006KT 5SM BR BKN008
     FM021400 24008KT P6SM BKN010
     FM021700 25010G16KT P6SM VCTS BKN035CB
     FM022200 29006KT P6SM SHRA VCTS OVC035CB=

USA.gov is the U.S. government's official web portal to all federal, state and local government web resources and services.